createdAt,value
2022-09-06T00:01:47.364Z,19.69
2022-09-06T00:04:17.822Z,19.69
2022-09-06T00:06:48.255Z,19.69
2022-09-06T00:09:18.651Z,19.68
2022-09-06T00:11:49.061Z,19.69
2022-09-06T00:14:19.632Z,19.69
2022-09-06T00:16:49.973Z,19.68
2022-09-06T00:19:20.407Z,19.66
2022-09-06T00:21:50.846Z,19.67
2022-09-06T00:24:21.176Z,19.67
2022-09-06T00:26:51.538Z,19.67
2022-09-06T00:29:21.907Z,19.67
2022-09-06T00:31:52.530Z,19.66
2022-09-06T00:34:22.917Z,19.66
2022-09-06T00:36:53.327Z,19.67
2022-09-06T00:39:23.816Z,19.67
2022-09-06T00:41:54.330Z,19.67
2022-09-06T00:44:24.732Z,19.66
2022-09-06T00:46:55.697Z,19.65
2022-09-06T00:49:29.260Z,19.65
2022-09-06T00:52:02.071Z,19.65
2022-09-06T00:54:32.663Z,19.66
2022-09-06T00:57:03.543Z,19.67
2022-09-06T00:59:36.735Z,19.69
2022-09-06T01:02:09.226Z,19.72
2022-09-06T01:04:38.488Z,19.77
2022-09-06T01:07:16.377Z,19.79
2022-09-06T01:09:53.812Z,19.81
2022-09-06T01:12:31.832Z,19.82
2022-09-06T01:15:11.120Z,19.83
2022-09-06T01:17:49.088Z,19.83
2022-09-06T01:20:48.305Z,19.83
2022-09-06T01:23:53.385Z,19.83
2022-09-06T01:26:55.513Z,19.81
2022-09-06T01:29:30.484Z,19.79
2022-09-06T01:32:04.804Z,19.78
2022-09-06T01:34:41.250Z,19.76
2022-09-06T01:37:14.172Z,19.75
2022-09-06T01:39:44.663Z,19.74
2022-09-06T01:42:16.902Z,19.71
2022-09-06T01:44:51.168Z,19.69
2022-09-06T01:47:29.520Z,19.67
2022-09-06T01:50:17.934Z,19.66
2022-09-06T01:52:55.566Z,19.67
2022-09-06T01:55:32.104Z,19.67
2022-09-06T01:58:16.192Z,19.68
2022-09-06T02:00:53.196Z,19.69
2022-09-06T02:03:29.221Z,19.74
2022-09-06T02:06:04.156Z,19.79
2022-09-06T02:08:36.659Z,19.80
2022-09-06T02:11:08.594Z,19.79
2022-09-06T02:13:41.408Z,19.82
2022-09-06T02:16:14.207Z,19.88
2022-09-06T02:18:49.821Z,19.93
2022-09-06T02:21:23.526Z,19.92
2022-09-06T02:23:54.444Z,19.83
2022-09-06T02:26:27.544Z,19.73
2022-09-06T02:28:58.158Z,19.61
2022-09-06T02:31:30.176Z,19.52
2022-09-06T02:34:01.032Z,19.44
2022-09-06T02:36:32.285Z,19.39
2022-09-06T02:39:03.214Z,19.35
2022-09-06T02:41:34.334Z,19.33
2022-09-06T02:44:05.101Z,19.31
2022-09-06T02:46:35.429Z,19.28
2022-09-06T02:49:05.804Z,19.29
2022-09-06T02:51:40.045Z,19.30
2022-09-06T02:54:10.635Z,19.32
2022-09-06T02:56:41.201Z,19.33
2022-09-06T02:59:11.540Z,19.33
2022-09-06T03:07:37.095Z,19.37
2022-09-06T03:10:09.341Z,19.34
2022-09-06T03:12:39.651Z,19.25
2022-09-06T03:15:12.081Z,19.09
2022-09-06T03:17:42.764Z,18.88
2022-09-06T03:20:14.553Z,18.67
2022-09-06T03:22:45.108Z,18.48
2022-09-06T03:25:15.447Z,18.33
2022-09-06T03:27:46.202Z,18.20
2022-09-06T03:30:16.950Z,18.12
2022-09-06T03:32:47.433Z,18.05
2022-09-06T03:35:17.936Z,18.03
2022-09-06T03:37:48.245Z,18.03
2022-09-06T03:40:18.799Z,18.02
2022-09-06T03:42:49.084Z,17.99
2022-09-06T03:45:19.551Z,17.94
2022-09-06T03:47:49.860Z,17.85
2022-09-06T03:50:20.224Z,17.75
2022-09-06T03:52:50.549Z,17.63
2022-09-06T03:55:21.042Z,17.52
2022-09-06T03:57:51.367Z,17.44
2022-09-06T04:00:21.892Z,17.39
2022-09-06T04:02:52.193Z,17.36
2022-09-06T04:05:22.551Z,17.34
2022-09-06T04:07:52.912Z,17.32
2022-09-06T04:10:23.355Z,17.34
2022-09-06T04:12:53.735Z,17.34
2022-09-06T04:15:24.193Z,17.32
2022-09-06T04:17:54.606Z,17.32
2022-09-06T04:20:24.969Z,17.40
2022-09-06T04:22:55.319Z,17.43
2022-09-06T04:25:25.744Z,17.44
2022-09-06T04:27:56.140Z,17.41
2022-09-06T04:30:26.519Z,17.37
2022-09-06T04:32:56.872Z,17.31
2022-09-06T04:35:27.377Z,17.25
2022-09-06T04:37:57.789Z,17.19
2022-09-06T04:40:28.563Z,17.14
2022-09-06T04:42:58.919Z,17.09
2022-09-06T04:45:29.359Z,17.04
2022-09-06T04:47:59.698Z,16.97
2022-09-06T04:50:30.194Z,16.89
2022-09-06T04:53:10.850Z,16.82
2022-09-06T04:55:41.440Z,16.75
2022-09-06T04:58:11.841Z,16.71
2022-09-06T05:00:44.633Z,16.68
2022-09-06T05:03:15.292Z,16.64
2022-09-06T05:05:45.639Z,16.61
2022-09-06T05:08:16.230Z,16.59
2022-09-06T05:10:46.610Z,16.56
2022-09-06T05:13:16.961Z,16.54
2022-09-06T05:15:47.423Z,16.53
2022-09-06T05:18:17.765Z,16.54
2022-09-06T05:20:53.915Z,16.55
2022-09-06T05:23:24.745Z,16.57
2022-09-06T05:25:55.075Z,16.60
2022-09-06T05:28:25.499Z,16.64
2022-09-06T05:30:56.075Z,16.90
2022-09-06T05:33:26.422Z,17.57
2022-09-06T05:35:56.751Z,18.31
2022-09-06T05:38:29.632Z,18.92
2022-09-06T05:41:00.351Z,19.55
2022-09-06T05:43:31.002Z,19.81
2022-09-06T05:46:01.708Z,19.99
2022-09-06T05:48:36.583Z,20.34
2022-09-06T05:51:09.702Z,20.88
2022-09-06T05:53:39.538Z,21.40
2022-09-06T05:56:10.582Z,21.99
2022-09-06T05:58:41.263Z,22.46
2022-09-06T06:01:19.150Z,22.91
2022-09-06T06:03:54.796Z,23.42
2022-09-06T06:06:26.432Z,23.91
2022-09-06T06:08:57.332Z,24.43
2022-09-06T06:11:28.325Z,24.95
2022-09-06T06:13:59.204Z,25.41
2022-09-06T06:16:29.835Z,25.74
2022-09-06T06:19:00.228Z,26.00
2022-09-06T06:21:32.009Z,26.20
2022-09-06T06:24:04.313Z,26.32
2022-09-06T06:26:33.722Z,26.52
2022-09-06T06:29:05.666Z,26.66
2022-09-06T06:31:36.735Z,26.84
2022-09-06T06:34:07.440Z,27.01
2022-09-06T06:36:38.792Z,27.14
2022-09-06T06:39:09.651Z,27.24
2022-09-06T06:41:40.057Z,27.30
2022-09-06T06:44:27.971Z,27.48
2022-09-06T06:47:01.867Z,27.52
2022-09-06T06:49:33.892Z,27.58
2022-09-06T06:52:04.589Z,27.62
2022-09-06T06:54:34.991Z,27.68
2022-09-06T06:57:05.910Z,27.94
2022-09-06T06:59:36.247Z,28.20
2022-09-06T07:02:06.929Z,28.29
2022-09-06T07:04:37.428Z,28.43
2022-09-06T07:12:48.816Z,28.06
2022-09-06T07:15:19.279Z,27.98
2022-09-06T07:17:49.563Z,27.95
2022-09-06T07:20:20.351Z,27.78
2022-09-06T07:25:51.375Z,27.81
2022-09-06T07:28:23.521Z,28.00
2022-09-06T07:30:55.984Z,28.11
2022-09-06T07:33:26.391Z,28.29
2022-09-06T07:36:04.908Z,28.29
2022-09-06T07:38:35.784Z,28.18
2022-09-06T07:41:08.023Z,27.86
2022-09-06T07:43:38.820Z,27.53
2022-09-06T07:46:10.850Z,27.39
2022-09-06T07:48:40.497Z,27.31
2022-09-06T07:51:12.286Z,27.13
2022-09-06T07:53:43.641Z,27.15
2022-09-06T07:56:14.973Z,27.14
2022-09-06T07:58:45.263Z,27.05
2022-09-06T08:01:20.025Z,27.04
2022-09-06T08:03:50.428Z,27.13
2022-09-06T08:06:20.884Z,27.36
2022-09-06T08:08:59.529Z,27.56
2022-09-06T08:11:31.592Z,27.49
2022-09-06T08:14:05.011Z,27.68
2022-09-06T08:16:36.329Z,28.07
2022-09-06T08:19:08.757Z,28.37
2022-09-06T08:21:39.265Z,28.47
2022-09-06T08:24:11.192Z,28.66
2022-09-06T08:26:42.316Z,28.64
2022-09-06T08:29:13.558Z,28.65
2022-09-06T08:31:45.306Z,28.72
2022-09-06T08:34:16.014Z,28.92
2022-09-06T08:36:46.651Z,29.12
2022-09-06T08:39:16.993Z,29.06
2022-09-06T08:41:52.470Z,29.05
2022-09-06T08:47:17.096Z,29.42
2022-09-06T08:49:49.124Z,29.59
2022-09-06T08:52:49.713Z,29.61
2022-09-06T08:55:36.656Z,29.60
2022-09-06T08:58:23.133Z,29.82
2022-09-06T09:00:58.523Z,29.92
2022-09-06T09:03:34.551Z,30.02
2022-09-06T09:06:06.348Z,29.91
2022-09-06T09:08:36.413Z,29.73
2022-09-06T09:11:09.224Z,29.72
2022-09-06T09:13:44.688Z,29.79
2022-09-06T09:16:15.391Z,29.81
2022-09-06T09:18:47.761Z,29.99
2022-09-06T09:21:21.391Z,30.12
2022-09-06T09:23:54.891Z,30.27
2022-09-06T09:26:27.809Z,30.59
2022-09-06T09:29:08.849Z,30.79
2022-09-06T09:31:41.902Z,30.91
2022-09-06T09:34:29.512Z,30.97
2022-09-06T09:40:05.757Z,31.01
2022-09-06T09:42:38.472Z,30.91
2022-09-06T09:45:25.341Z,30.98
2022-09-06T09:47:55.749Z,30.97
2022-09-06T09:50:28.907Z,30.76
2022-09-06T09:53:09.264Z,30.79
2022-09-06T09:55:40.038Z,31.16
2022-09-06T09:58:16.146Z,31.44
2022-09-06T10:00:46.555Z,31.48
2022-09-06T10:03:18.956Z,31.48
2022-09-06T10:06:02.845Z,31.79
2022-09-06T10:08:39.502Z,32.00
2022-09-06T10:11:09.807Z,32.12
2022-09-06T10:13:41.967Z,32.38
2022-09-06T10:16:12.491Z,32.47
2022-09-06T10:18:44.632Z,32.63
2022-09-06T10:21:16.322Z,32.68
2022-09-06T10:26:54.159Z,32.81
2022-09-06T10:29:31.601Z,32.96
2022-09-06T10:32:13.597Z,33.15
2022-09-06T10:35:07.559Z,33.47
2022-09-06T10:37:48.802Z,33.99
2022-09-06T10:40:27.654Z,34.04
2022-09-06T10:43:00.387Z,34.01
2022-09-06T10:46:03.068Z,34.16
2022-09-06T10:48:34.590Z,34.69
2022-09-06T10:51:05.158Z,35.16
2022-09-06T10:53:44.272Z,35.40
2022-09-06T10:56:18.928Z,35.63
2022-09-06T11:01:55.638Z,35.59
2022-09-06T11:04:29.318Z,35.60
2022-09-06T11:07:02.119Z,35.68
2022-09-06T11:09:37.681Z,35.80
2022-09-06T11:12:10.954Z,35.89
2022-09-06T11:14:41.872Z,35.83
2022-09-06T11:17:15.934Z,36.10
2022-09-06T11:19:50.613Z,36.44
2022-09-06T11:23:04.355Z,36.62
2022-09-06T11:25:47.094Z,36.55
2022-09-06T11:28:22.130Z,36.84
2022-09-06T11:30:58.459Z,37.29
2022-09-06T11:33:30.502Z,37.64
2022-09-06T11:36:24.341Z,37.68
2022-09-06T11:38:59.588Z,37.95
2022-09-06T11:41:33.173Z,38.05
2022-09-06T11:44:04.463Z,38.10
2022-09-06T11:47:01.560Z,38.21
2022-09-06T11:49:37.531Z,38.53
2022-09-06T11:52:38.538Z,38.93
2022-09-06T11:55:12.244Z,39.34
2022-09-06T11:57:43.887Z,39.72
2022-09-06T12:00:23.775Z,40.04
2022-09-06T12:02:54.507Z,39.99
2022-09-06T12:05:30.935Z,40.17
2022-09-06T12:08:35.292Z,40.00
2022-09-06T12:11:27.086Z,39.73
2022-09-06T12:14:04.145Z,39.59
2022-09-06T12:17:07.617Z,39.52
2022-09-06T12:19:47.451Z,39.50
2022-09-06T12:22:49.011Z,39.55
2022-09-06T12:25:21.143Z,39.88
2022-09-06T12:27:56.461Z,40.05
2022-09-06T12:30:37.378Z,40.47
2022-09-06T12:33:08.114Z,40.75
2022-09-06T12:38:29.545Z,41.14
2022-09-06T12:41:01.136Z,41.63
2022-09-06T12:43:36.061Z,41.84
2022-09-06T12:46:08.811Z,41.83
2022-09-06T12:48:41.344Z,41.71
2022-09-06T12:51:16.236Z,41.79
2022-09-06T12:53:55.766Z,41.97
2022-09-06T12:56:27.675Z,41.96
2022-09-06T12:59:16.944Z,42.14
2022-09-06T13:01:52.687Z,42.36
2022-09-06T13:04:30.109Z,42.46
2022-09-06T13:07:01.331Z,42.34
2022-09-06T13:09:32.336Z,42.04
2022-09-06T13:12:07.707Z,41.97
2022-09-06T13:14:38.206Z,42.07
2022-09-06T13:17:09.313Z,42.15
2022-09-06T13:19:40.439Z,42.10
2022-09-06T13:22:11.847Z,42.33
2022-09-06T13:24:47.945Z,42.35
2022-09-06T13:27:34.725Z,42.27
2022-09-06T13:30:08.189Z,42.37
2022-09-06T13:32:46.886Z,42.48
2022-09-06T13:35:26.273Z,42.38
2022-09-06T13:38:36.809Z,42.37
2022-09-06T13:41:13.519Z,42.40
2022-09-06T13:43:47.975Z,42.30
2022-09-06T13:46:18.345Z,42.52
2022-09-06T13:48:48.706Z,42.77
2022-09-06T13:51:19.143Z,43.00
2022-09-06T13:53:48.901Z,43.22
2022-09-06T13:56:19.446Z,43.36
2022-09-06T13:58:49.748Z,43.41
2022-09-06T14:01:20.459Z,43.11
2022-09-06T14:03:52.311Z,43.13
2022-09-06T14:06:22.710Z,43.34
2022-09-06T14:09:08.217Z,43.67
2022-09-06T14:11:39.293Z,43.38
2022-09-06T14:14:10.879Z,42.60
2022-09-06T14:16:41.234Z,40.42
2022-09-06T14:19:11.844Z,38.30
2022-09-06T14:21:42.182Z,36.76
2022-09-06T14:24:12.616Z,35.62
2022-09-06T14:26:42.920Z,34.64
2022-09-06T14:29:13.242Z,33.62
2022-09-06T14:31:43.558Z,32.78
2022-09-06T14:34:14.074Z,32.26
2022-09-06T14:36:44.422Z,31.74
2022-09-06T14:39:14.817Z,31.27
2022-09-06T14:41:45.150Z,30.94
2022-09-06T14:44:15.473Z,30.65
2022-09-06T14:46:47.655Z,30.48
2022-09-06T14:49:18.483Z,30.56
2022-09-06T14:51:48.893Z,30.98
2022-09-06T14:54:19.318Z,30.75
2022-09-06T14:56:49.685Z,30.40
2022-09-06T14:59:20.067Z,30.10
2022-09-06T15:01:50.445Z,29.80
2022-09-06T15:04:20.966Z,29.61
2022-09-06T15:06:51.760Z,29.36
2022-09-06T15:09:22.197Z,29.08
2022-09-06T15:11:53.484Z,28.89
2022-09-06T15:14:25.144Z,28.75
2022-09-06T15:16:58.084Z,28.63
2022-09-06T15:19:30.144Z,28.48
2022-09-06T15:21:58.990Z,28.34
2022-09-06T15:24:29.376Z,28.22
2022-09-06T15:26:59.881Z,28.10
2022-09-06T15:29:30.228Z,28.04
2022-09-06T15:32:00.547Z,27.98
2022-09-06T15:34:30.823Z,27.93
2022-09-06T15:37:01.156Z,27.85
2022-09-06T15:39:31.596Z,27.75
2022-09-06T15:42:01.967Z,27.69
2022-09-06T15:44:33.026Z,27.61
2022-09-06T15:47:03.369Z,27.51
2022-09-06T15:49:34.127Z,27.40
2022-09-06T15:52:06.064Z,27.27
2022-09-06T15:54:53.790Z,27.14
2022-09-06T15:57:24.408Z,26.95
2022-09-06T15:59:55.449Z,26.71
2022-09-06T16:02:26.147Z,26.41
2022-09-06T16:04:56.875Z,26.11
2022-09-06T16:07:27.554Z,25.86
2022-09-06T16:09:59.306Z,25.62
2022-09-06T16:12:29.681Z,25.42
2022-09-06T16:15:00.023Z,25.22
2022-09-06T16:17:31.194Z,25.04
2022-09-06T16:20:01.625Z,24.86
2022-09-06T16:22:31.986Z,24.69
2022-09-06T16:25:02.421Z,24.53
2022-09-06T16:27:32.803Z,24.37
2022-09-06T16:30:03.180Z,24.27
2022-09-06T16:32:33.551Z,24.19
2022-09-06T16:35:05.787Z,24.11
2022-09-06T16:37:36.144Z,24.09
2022-09-06T16:40:10.338Z,24.06
2022-09-06T16:42:40.714Z,24.04
2022-09-06T16:45:12.154Z,24.00
2022-09-06T16:47:42.626Z,23.97
2022-09-06T16:50:13.045Z,23.92
2022-09-06T16:52:43.362Z,23.84
2022-09-06T16:55:13.914Z,23.70
2022-09-06T16:57:44.224Z,23.56
2022-09-06T17:00:17.083Z,23.39
2022-09-06T17:02:47.861Z,23.17
2022-09-06T17:05:18.564Z,22.96
2022-09-06T17:07:49.033Z,22.78
2022-09-06T17:10:19.558Z,22.60
2022-09-06T17:12:50.067Z,22.36
2022-09-06T17:15:20.806Z,22.00
2022-09-06T17:17:51.164Z,21.62
2022-09-06T17:20:21.531Z,21.26
2022-09-06T17:22:53.445Z,20.93
2022-09-06T17:25:23.787Z,20.57
2022-09-06T17:27:54.161Z,20.25
2022-09-06T17:30:24.630Z,19.93
2022-09-06T17:32:55.429Z,19.52
2022-09-06T17:35:25.893Z,19.03
2022-09-06T17:37:56.332Z,18.59
2022-09-06T17:40:26.762Z,18.23
2022-09-06T17:42:57.209Z,17.94
2022-09-06T17:45:27.663Z,17.76
2022-09-06T17:47:58.022Z,17.62
2022-09-06T17:50:30.585Z,17.52
2022-09-06T17:53:01.539Z,17.41
2022-09-06T17:55:31.986Z,17.32
2022-09-06T17:58:03.027Z,17.24
2022-09-06T18:00:33.437Z,17.15
2022-09-06T18:03:03.741Z,17.11
2022-09-06T18:05:39.636Z,17.09
2022-09-06T18:08:11.051Z,17.08
2022-09-06T18:10:41.417Z,17.10
2022-09-06T18:13:11.801Z,17.13
2022-09-06T18:15:42.524Z,17.15
2022-09-06T18:18:13.108Z,17.12
2022-09-06T18:20:43.571Z,17.05
2022-09-06T18:23:14.001Z,16.96
2022-09-06T18:25:44.408Z,16.89
2022-09-06T18:28:15.013Z,16.83
2022-09-06T18:30:45.325Z,16.75
2022-09-06T18:33:15.720Z,16.67
2022-09-06T18:35:46.055Z,16.61
2022-09-06T18:38:16.460Z,16.58
2022-09-06T18:40:54.189Z,16.57
2022-09-06T18:43:28.033Z,16.58
2022-09-06T18:46:04.727Z,16.63
2022-09-06T18:48:36.465Z,16.71
2022-09-06T18:51:07.956Z,16.78
2022-09-06T18:53:44.018Z,16.80
2022-09-06T18:56:16.037Z,16.82
2022-09-06T18:58:46.408Z,16.81
2022-09-06T19:01:18.226Z,16.79
2022-09-06T19:03:49.150Z,16.76
2022-09-06T19:06:21.699Z,16.72
2022-09-06T19:08:53.794Z,16.63
2022-09-06T19:11:24.839Z,16.55
2022-09-06T19:13:56.803Z,16.51
2022-09-06T19:16:28.904Z,16.49
2022-09-06T19:19:04.298Z,16.50
2022-09-06T19:21:39.168Z,16.51
2022-09-06T19:24:14.552Z,16.50
2022-09-06T19:26:46.889Z,16.49
2022-09-06T19:29:18.614Z,16.48
2022-09-06T19:31:49.462Z,16.46
2022-09-06T19:34:19.953Z,16.49
2022-09-06T19:36:55.057Z,16.52
2022-09-06T19:39:31.138Z,16.52
2022-09-06T19:42:04.371Z,16.54
2022-09-06T19:44:34.881Z,16.57
2022-09-06T19:47:05.482Z,16.57
2022-09-06T19:49:35.864Z,16.56
2022-09-06T19:52:09.522Z,16.58
2022-09-06T19:54:40.412Z,16.59
2022-09-06T19:57:11.100Z,16.60
2022-09-06T19:59:41.481Z,16.63
2022-09-06T20:02:11.863Z,16.65
2022-09-06T20:04:42.369Z,16.68
2022-09-06T20:07:12.727Z,16.73
2022-09-06T20:09:43.297Z,16.78
2022-09-06T20:12:13.640Z,16.84
2022-09-06T20:14:44.008Z,16.90
2022-09-06T20:17:32.617Z,16.93
2022-09-06T20:20:04.496Z,16.98
2022-09-06T20:22:34.836Z,17.02
2022-09-06T20:25:05.600Z,17.07
2022-09-06T20:27:36.001Z,17.14
2022-09-06T20:30:07.495Z,17.23
2022-09-06T20:32:37.913Z,17.32
2022-09-06T20:35:09.987Z,17.37
2022-09-06T20:37:40.940Z,17.42
2022-09-06T20:40:12.992Z,17.46
2022-09-06T20:42:45.923Z,17.49
2022-09-06T20:45:17.714Z,17.53
2022-09-06T20:47:48.082Z,17.57
2022-09-06T20:50:18.527Z,17.62
2022-09-06T20:52:48.828Z,17.67
2022-09-06T20:55:19.308Z,17.72
2022-09-06T20:57:50.262Z,17.77
2022-09-06T21:00:20.735Z,17.81
2022-09-06T21:02:51.015Z,17.84
2022-09-06T21:05:21.370Z,17.85
2022-09-06T21:07:51.632Z,17.86
2022-09-06T21:10:21.954Z,17.87
2022-09-06T21:12:52.338Z,17.88
2022-09-06T21:15:22.636Z,17.88
2022-09-06T21:17:53.084Z,17.90
2022-09-06T21:20:23.412Z,17.90
2022-09-06T21:22:53.688Z,17.85
2022-09-06T21:25:24.110Z,17.76
2022-09-06T21:27:55.878Z,17.61
2022-09-06T21:30:26.343Z,17.49
2022-09-06T21:32:57.119Z,17.40
2022-09-06T21:35:27.448Z,17.31
2022-09-06T21:37:57.771Z,17.24
2022-09-06T21:40:28.087Z,17.19
2022-09-06T21:42:58.358Z,17.15
2022-09-06T21:45:28.684Z,17.11
2022-09-06T21:47:59.116Z,17.07
2022-09-06T21:50:29.611Z,17.04
2022-09-06T21:52:59.936Z,17.03
2022-09-06T21:55:30.261Z,17.05
2022-09-06T21:58:00.920Z,17.06
2022-09-06T22:00:31.288Z,17.08
2022-09-06T22:03:01.598Z,17.10
2022-09-06T22:05:32.254Z,17.12
2022-09-06T22:08:02.941Z,17.14
2022-09-06T22:10:33.313Z,17.15
2022-09-06T22:13:03.645Z,17.16
2022-09-06T22:15:37.393Z,17.16
2022-09-06T22:18:08.247Z,17.18
2022-09-06T22:20:38.926Z,17.20
2022-09-06T22:23:09.959Z,17.21
2022-09-06T22:25:42.855Z,17.23
2022-09-06T22:28:13.201Z,17.24
2022-09-06T22:30:44.064Z,17.26
2022-09-06T22:33:14.418Z,17.28
2022-09-06T22:35:44.751Z,17.29
2022-09-06T22:38:15.145Z,17.31
2022-09-06T22:40:45.559Z,17.32
2022-09-06T22:43:17.128Z,17.34
2022-09-06T22:45:51.870Z,17.36
2022-09-06T22:48:22.844Z,17.41
2022-09-06T22:50:53.607Z,17.46
2022-09-06T22:53:23.920Z,17.52
2022-09-06T22:55:54.261Z,17.56
2022-09-06T22:58:26.824Z,17.58
2022-09-06T23:00:57.595Z,17.59
2022-09-06T23:03:28.051Z,17.63
2022-09-06T23:06:02.733Z,17.66
2022-09-06T23:08:35.347Z,17.67
2022-09-06T23:11:12.255Z,17.71
2022-09-06T23:13:44.579Z,17.74
2022-09-06T23:16:17.259Z,17.76
2022-09-06T23:18:47.126Z,17.78
2022-09-06T23:21:21.052Z,17.77
2022-09-06T23:23:54.608Z,17.78
2022-09-06T23:26:28.083Z,17.77
2022-09-06T23:29:00.194Z,17.73
2022-09-06T23:31:34.140Z,17.70
2022-09-06T23:34:05.903Z,17.68
2022-09-06T23:36:37.092Z,17.67
2022-09-06T23:39:09.410Z,17.68
2022-09-06T23:41:41.113Z,17.71
2022-09-06T23:44:12.411Z,17.73
2022-09-06T23:46:43.900Z,17.75
2022-09-06T23:49:15.199Z,17.78
2022-09-06T23:51:48.146Z,17.80
2022-09-06T23:54:19.451Z,17.83
2022-09-06T23:56:51.153Z,17.85
2022-09-06T23:59:22.292Z,17.88
